Etusivu
METAR-TAF:

METAR-TAF

Lentoasemat :

Edinburg, Texas, Yhdysvallat

Leveyspiiri: 26-26-31N, Pituuspiiri: 098-07-46W, korkeus merenpinnasta: 24 m

Tämänhetkinen sää

Tämä raportti tehtiin 11 minuuttia sitten, kello 13.15 UTC
Tuuli 14 kn etelästä/kaakosta puuskistuen 19 kn:hen
Lämpötila 29°C
Kosteus 70%
Ilmanpaine 1002 hPa
Näkyvyys: 11.3 km
selkeää

METAR: KEBG 211315Z AUTO 16014G19KT 7SM CLR 29/23 A2960 RMK AO2 T02900228

Aika: 08:26 (13:26 UTC)


TAF: puuttuu

Säähavainnot ja -ennusteet yli 4000 lentoasemalta (METAR- ja TAF-raportit).

Käytössä olevat sääasemat on merkitty karttaan keltaisilla ja punaisilla pisteillä.

Aseta hiiri pisteen päälle nähdäksesi sääaseman nimen.

Klikkaa sitten nähdäksesi säähavainnot ja -ennusteet.

Kartan vaihtaminen: klikkaa mustalla rastilla varustettuja vihreitä pisteitä, niin voit zoomata sisään; viivalla varustettua vihreää pistettä, niin voit zoomata ulos tai vihreitä nuolia, niin pääset viereisille kartoille.


METAR-TAF: